Thunder radar more information blitzortung!


Radar de pluja more information rain snow radar


Visita la nostra xarxa de llocs de meteo:

Template documentation
and downloads

And another site



No particular awareness of the weather is required.    There are no Weather-warnings

Pagina Historial Weather Underground text

Diari Resum Agost 28, 2017 Unitats:  Mètric    Imperial   Tant
« Previous Dia
SegĂźent Dia »
Diari Setmana Mensual Anual Personalitzada
  Maxima: Minima: Media:
Temperatura: 37.1 °C 20.4 °C 28.7 °C
Punt de rosada: 19.4 °C 11.8 °C 17.7 °C
Humitat: 76 % 23 % 53 %
Wind Speed: 29.6 km/h 0.0 km/h 6.5 km/h
RĂ fegues de vent: 29.6 km/h - -
Vent:- - SSE
Pression baro: 1013.8 hPa 1010.7 hPa -
Precipitacions: 0.0 mm    
Historical Graphs
 
 
Dades de taula per Agost 28, 2017
Temps Temperatura Punt de rosada Pression baro Vent Wind Speed RĂ fegues de vent Humitat Rainfall Rate (Hourly)
00:01 24.1 °C 17.3 °C 1013.8 hPa SW 4.2 km/h 4.2 km/h 66 % 0.0 mm
00:06 24.0 °C 17.3 °C 1013.8 hPa SW 3.7 km/h 3.7 km/h 66 % 0.0 mm
00:11 24.0 °C 17.5 °C 1012.8 hPa WSW 2.3 km/h 2.3 km/h 67 % 0.0 mm
02:25 21.3 °C 15.8 °C 1013.8 hPa Calm     71 % 0.0 mm
02:35 21.2 °C 15.7 °C 1013.8 hPa Calm   1.6 km/h 71 % 0.0 mm
02:45 21.1 °C 15.8 °C 1013.8 hPa Calm     72 % 0.0 mm
02:55 21.1 °C 15.8 °C 1013.8 hPa Calm     72 % 0.0 mm
03:05 21.0 °C 15.8 °C 1012.8 hPa Calm     72 % 0.0 mm
03:15 20.8 °C 15.8 °C 1013.8 hPa Calm     73 % 0.0 mm
03:25 20.7 °C 15.7 °C 1013.8 hPa Calm     73 % 0.0 mm
03:35 20.4 °C 15.4 °C 1013.8 hPa WSW 1.6 km/h 3.2 km/h 73 % 0.0 mm
03:45 20.4 °C 15.6 °C 1012.8 hPa Calm   3.2 km/h 74 % 0.0 mm
03:55 20.6 °C 15.8 °C 1012.8 hPa Calm   1.6 km/h 74 % 0.0 mm
04:05 20.9 °C 16.1 °C 1013.8 hPa North 3.2 km/h 3.2 km/h 74 % 0.0 mm
04:15 21.2 °C 16.4 °C 1013.8 hPa NE 1.6 km/h 4.8 km/h 74 % 0.0 mm
09:17 24.1 °C 17.1 °C 1013.8 hPa ENE 2.3 km/h 2.3 km/h 65 % 0.0 mm
09:22 24.3 °C 17.3 °C 1013.8 hPa ENE 1.9 km/h   65 % 0.0 mm
09:27 24.5 °C 17.2 °C 1013.8 hPa North 3.7 km/h 3.7 km/h 64 % 0.0 mm
09:32 24.9 °C 17.6 °C 1013.8 hPa NE 3.9 km/h 3.9 km/h 64 % 0.0 mm
09:37 25.0 °C 17.2 °C 1013.8 hPa ENE 3.9 km/h 3.9 km/h 62 % 0.0 mm
09:42 25.2 °C 17.4 °C 1013.8 hPa NE 3.7 km/h 3.7 km/h 62 % 0.0 mm
09:47 25.6 °C 17.8 °C 1013.8 hPa West 5.6 km/h 5.6 km/h 62 % 0.0 mm
09:52 25.6 °C 17.5 °C 1013.8 hPa SW 3.7 km/h   61 % 0.0 mm
09:57 25.9 °C 17.8 °C 1013.8 hPa NNE 1.9 km/h   61 % 0.0 mm
10:02 26.0 °C 17.9 °C 1013.8 hPa NE 2.3 km/h 2.3 km/h 61 % 0.0 mm
10:07 26.1 °C 17.7 °C 1013.8 hPa SW 5.6 km/h   60 % 0.0 mm
10:12 26.5 °C 18.1 °C 1013.8 hPa SW 3.7 km/h 3.7 km/h 60 % 0.0 mm
10:17 26.8 °C 18.4 °C 1013.8 hPa Calm     60 % 0.0 mm
10:22 27.3 °C 18.3 °C 1013.8 hPa ESE 3.7 km/h 3.7 km/h 58 % 0.0 mm
10:27 27.4 °C 18.1 °C 1013.8 hPa SSW 3.7 km/h 3.7 km/h 57 % 0.0 mm
10:32 27.6 °C 18.6 °C 1013.8 hPa NNE 3.7 km/h 3.7 km/h 58 % 0.0 mm
10:37 27.8 °C 18.5 °C 1013.8 hPa SW 7.4 km/h 7.4 km/h 57 % 0.0 mm
10:42 28.2 °C 18.9 °C 1012.8 hPa SW 3.7 km/h 3.7 km/h 57 % 0.0 mm
10:47 28.1 °C 18.5 °C 1012.8 hPa ENE 3.7 km/h 3.7 km/h 56 % 0.0 mm
10:52 27.8 °C 18.2 °C 1012.8 hPa WNW 5.6 km/h 5.6 km/h 56 % 0.0 mm
10:57 28.1 °C 18.2 °C 1013.8 hPa ESE 3.7 km/h 3.9 km/h 55 % 0.0 mm
11:02 28.4 °C 18.8 °C 1013.8 hPa NNE 5.6 km/h 5.6 km/h 56 % 0.0 mm
11:07 28.5 °C 18.6 °C 1013.8 hPa ENE 5.0 km/h 5.0 km/h 55 % 0.0 mm
11:12 28.5 °C 18.3 °C 1013.8 hPa ESE 5.6 km/h 5.6 km/h 54 % 0.0 mm
11:17 28.8 °C 18.6 °C 1013.8 hPa ESE 3.7 km/h 3.7 km/h 54 % 0.0 mm
11:22 29.2 °C 18.6 °C 1013.8 hPa West 6.9 km/h 6.9 km/h 53 % 0.0 mm
11:27 29.4 °C 18.8 °C 1013.8 hPa ESE 3.7 km/h 3.7 km/h 53 % 0.0 mm
11:32 29.9 °C 19.0 °C 1013.8 hPa WSW 5.6 km/h 5.6 km/h 52 % 0.0 mm
11:37 30.3 °C 19.1 °C 1013.8 hPa NW 3.2 km/h   51 % 0.0 mm
11:42 30.4 °C 18.8 °C 1013.8 hPa ENE 5.6 km/h 5.6 km/h 50 % 0.0 mm
11:47 30.5 °C 18.9 °C 1013.8 hPa NNE 7.4 km/h 7.4 km/h 50 % 0.0 mm
11:52 30.1 °C 18.6 °C 1013.8 hPa ENE 7.4 km/h 7.4 km/h 50 % 0.0 mm
11:57 30.1 °C 18.6 °C 1013.8 hPa East 5.6 km/h 5.6 km/h 50 % 0.0 mm
12:02 31.0 °C 19.1 °C 1013.8 hPa ENE 6.9 km/h 6.9 km/h 49 % 0.0 mm
12:07 31.0 °C 18.7 °C 1013.8 hPa NNE 8.7 km/h 8.7 km/h 48 % 0.0 mm
12:12 30.7 °C 18.1 °C 1013.8 hPa ESE 7.4 km/h 7.4 km/h 47 % 0.0 mm
12:17 31.0 °C 18.4 °C 1013.8 hPa NE 13.0 km/h 13.0 km/h 47 % 0.0 mm
12:22 30.9 °C 17.9 °C 1013.8 hPa NNE 9.3 km/h 9.3 km/h 46 % 0.0 mm
12:27 31.2 °C 17.8 °C 1013.8 hPa NNE 9.3 km/h 9.3 km/h 45 % 0.0 mm
12:32 31.6 °C 17.8 °C 1013.8 hPa SE 7.4 km/h 7.4 km/h 44 % 0.0 mm
12:37 32.3 °C 18.8 °C 1013.8 hPa NW 3.7 km/h 3.7 km/h 45 % 0.0 mm
12:42 32.8 °C 18.9 °C 1012.8 hPa ESE 3.7 km/h 3.9 km/h 44 % 0.0 mm
12:47 32.9 °C 19.1 °C 1012.8 hPa NNE 4.7 km/h 4.7 km/h 44 % 0.0 mm
12:57 33.2 °C 18.6 °C 1012.8 hPa SE 5.6 km/h 5.6 km/h 42 % 0.0 mm
13:02 33.6 °C 18.9 °C 1012.8 hPa WNW 3.9 km/h 3.9 km/h 42 % 0.0 mm
13:07 33.6 °C 18.9 °C 1012.8 hPa NW 5.6 km/h 5.6 km/h 42 % 0.0 mm
13:12 33.8 °C 18.3 °C 1012.8 hPa East 7.4 km/h 7.4 km/h 40 % 0.0 mm
13:18 33.7 °C 17.8 °C 1012.8 hPa South 6.4 km/h 6.4 km/h 39 % 0.0 mm
13:22 34.6 °C 18.6 °C 1012.8 hPa SE 4.2 km/h 4.2 km/h 39 % 0.0 mm
13:28 35.0 °C 18.1 °C 1011.7 hPa ENE 3.7 km/h 3.7 km/h 37 % 0.0 mm
13:33 34.5 °C 17.3 °C 1011.7 hPa ESE 5.6 km/h 5.6 km/h 36 % 0.0 mm
13:38 35.2 °C 18.3 °C 1011.7 hPa SW 5.6 km/h 5.6 km/h 37 % 0.0 mm
13:43 34.8 °C 16.2 °C 1011.7 hPa NNE 7.4 km/h 7.4 km/h 33 % 0.0 mm
13:48 34.7 °C 16.6 °C 1011.7 hPa SE 7.4 km/h 7.4 km/h 34 % 0.0 mm
13:53 35.3 °C 14.6 °C 1011.7 hPa ESE 7.4 km/h 7.4 km/h 29 % 0.0 mm
13:58 35.7 °C 15.9 °C 1012.8 hPa WSW 5.6 km/h 5.6 km/h 31 % 0.0 mm
14:03 35.9 °C 13.4 °C 1012.8 hPa ESE 7.4 km/h 7.4 km/h 26 % 0.0 mm
14:08 36.4 °C 14.4 °C 1012.8 hPa SSE 6.9 km/h 6.9 km/h 27 % 0.0 mm
14:13 36.8 °C 14.7 °C 1011.7 hPa South 5.6 km/h 5.6 km/h 27 % 0.0 mm
14:18 37.1 °C 15.0 °C 1011.7 hPa SW 7.4 km/h 7.4 km/h 27 % 0.0 mm
14:23 36.6 °C 13.4 °C 1011.7 hPa South 5.8 km/h 6.1 km/h 25 % 0.0 mm
14:28 36.1 °C 12.3 °C 1011.7 hPa East 9.3 km/h 9.3 km/h 24 % 0.0 mm
14:33 36.3 °C 11.8 °C 1011.7 hPa East 7.4 km/h 7.4 km/h 23 % 0.0 mm
14:38 36.6 °C 12.8 °C 1011.7 hPa ENE 6.9 km/h 6.9 km/h 24 % 0.0 mm
14:48 35.6 °C 13.7 °C 1011.7 hPa East 9.3 km/h 9.3 km/h 27 % 0.0 mm
14:53 35.6 °C 13.7 °C 1011.7 hPa ESE 16.7 km/h 16.7 km/h 27 % 0.0 mm
14:58 35.3 °C 14.0 °C 1011.7 hPa East 18.5 km/h 18.5 km/h 28 % 0.0 mm
15:03 35.2 °C 13.9 °C 1011.7 hPa East 13.0 km/h 13.0 km/h 28 % 0.0 mm
15:08 35.1 °C 13.8 °C 1011.7 hPa ESE 13.0 km/h 13.0 km/h 28 % 0.0 mm
15:13 35.0 °C 14.3 °C 1011.7 hPa East 9.5 km/h 9.5 km/h 29 % 0.0 mm
15:18 34.8 °C 15.2 °C 1011.7 hPa NE 20.4 km/h 20.4 km/h 31 % 0.0 mm
15:23 34.7 °C 15.1 °C 1011.7 hPa ENE 13.0 km/h 13.0 km/h 31 % 0.0 mm
15:28 34.3 °C 16.2 °C 1011.7 hPa ENE 13.0 km/h 13.0 km/h 34 % 0.0 mm
15:33 34.0 °C 17.3 °C 1011.7 hPa ESE 16.7 km/h 16.7 km/h 37 % 0.0 mm
15:38 34.0 °C 17.7 °C 1011.7 hPa ESE 13.0 km/h 13.0 km/h 38 % 0.0 mm
15:43 33.6 °C 17.7 °C 1011.7 hPa ENE 16.7 km/h 16.7 km/h 39 % 0.0 mm
15:48 33.0 °C 17.6 °C 1011.7 hPa South 22.2 km/h 22.2 km/h 40 % 0.0 mm
15:53 32.4 °C 18.2 °C 1011.7 hPa ESE 18.5 km/h 18.5 km/h 43 % 0.0 mm
15:58 32.4 °C 18.2 °C 1011.7 hPa SE 18.5 km/h 18.5 km/h 43 % 0.0 mm
16:03 31.9 °C 18.5 °C 1011.7 hPa East 14.0 km/h 14.0 km/h 45 % 0.0 mm
16:08 31.8 °C 18.4 °C 1011.7 hPa ESE 20.4 km/h 20.4 km/h 45 % 0.0 mm
16:13 31.2 °C 18.6 °C 1011.7 hPa ENE 18.5 km/h 18.5 km/h 47 % 0.0 mm
16:18 31.0 °C 18.7 °C 1011.7 hPa East 20.4 km/h 20.4 km/h 48 % 0.0 mm
16:23 30.9 °C 18.9 °C 1011.7 hPa ESE 12.2 km/h 12.2 km/h 49 % 0.0 mm
16:28 30.9 °C 19.3 °C 1011.7 hPa ESE 9.7 km/h 9.7 km/h 50 % 0.0 mm
16:33 30.7 °C 19.1 °C 1011.7 hPa ESE 11.1 km/h 13.0 km/h 50 % 0.0 mm
16:38 30.6 °C 19.0 °C 1011.7 hPa East 20.4 km/h 20.4 km/h 50 % 0.0 mm
16:43 30.3 °C 18.7 °C 1011.7 hPa ESE 9.7 km/h 9.7 km/h 50 % 0.0 mm
16:48 30.2 °C 18.6 °C 1011.7 hPa East 14.8 km/h 14.8 km/h 50 % 0.0 mm
16:53 30.1 °C 18.8 °C 1011.7 hPa SE 9.3 km/h 10.0 km/h 51 % 0.0 mm
16:58 30.0 °C 18.8 °C 1011.7 hPa ENE 9.3 km/h 9.5 km/h 51 % 0.0 mm
17:03 30.5 °C 18.9 °C 1011.7 hPa East 12.2 km/h 12.2 km/h 50 % 0.0 mm
17:08 30.5 °C 18.9 °C 1011.7 hPa SE 20.1 km/h 20.1 km/h 50 % 0.0 mm
17:13 30.0 °C 18.4 °C 1010.7 hPa NE 29.6 km/h 29.6 km/h 50 % 0.0 mm
17:18 29.7 °C 18.5 °C 1010.7 hPa ENE 12.2 km/h 12.2 km/h 51 % 0.0 mm
17:23 29.9 °C 18.7 °C 1010.7 hPa North 9.3 km/h 9.3 km/h 51 % 0.0 mm
17:28 29.6 °C 18.4 °C 1011.7 hPa SE 16.7 km/h 16.7 km/h 51 % 0.0 mm
17:33 29.9 °C 18.7 °C 1011.7 hPa East 9.7 km/h 9.7 km/h 51 % 0.0 mm
17:38 30.0 °C 18.8 °C 1011.7 hPa ESE 14.8 km/h 14.8 km/h 51 % 0.0 mm
17:43 29.9 °C 18.7 °C 1011.7 hPa ENE 13.0 km/h 13.0 km/h 51 % 0.0 mm
17:48 30.0 °C 18.8 °C 1011.7 hPa SSE 13.0 km/h 13.0 km/h 51 % 0.0 mm
17:53 30.1 °C 19.2 °C 1011.7 hPa ESE 9.3 km/h 9.3 km/h 52 % 0.0 mm
17:58 29.7 °C 18.8 °C 1011.7 hPa NW 11.1 km/h 11.1 km/h 52 % 0.0 mm
18:03 29.5 °C 18.9 °C 1011.7 hPa WNW 5.6 km/h 5.6 km/h 53 % 0.0 mm
18:08 29.6 °C 19.0 °C 1011.7 hPa NE 5.6 km/h 5.6 km/h 53 % 0.0 mm
18:13 29.9 °C 19.3 °C 1011.7 hPa WSW 3.7 km/h 3.7 km/h 53 % 0.0 mm
18:18 30.1 °C 19.4 °C 1011.7 hPa SW 5.6 km/h 5.6 km/h 53 % 0.0 mm
18:23 30.1 °C 19.4 °C 1011.7 hPa SW 11.1 km/h 11.1 km/h 53 % 0.0 mm
18:28 29.8 °C 19.2 °C 1011.7 hPa WSW 5.6 km/h 5.8 km/h 53 % 0.0 mm
18:33 29.3 °C 18.4 °C 1011.7 hPa SSW 14.8 km/h 14.8 km/h 52 % 0.0 mm
18:38 29.1 °C 18.2 °C 1011.7 hPa SW 11.1 km/h 11.1 km/h 52 % 0.0 mm
18:45 28.7 °C 17.9 °C 1010.7 hPa SW 11.1 km/h 11.1 km/h 52 % 0.0 mm
18:48 28.6 °C 17.8 °C 1010.7 hPa South 11.1 km/h 11.1 km/h 52 % 0.0 mm
18:53 28.3 °C 17.8 °C 1010.7 hPa WSW 9.7 km/h 9.7 km/h 53 % 0.0 mm
18:58 28.2 °C 17.7 °C 1011.7 hPa WSW 6.4 km/h 6.4 km/h 53 % 0.0 mm
19:03 28.1 °C 17.6 °C 1011.7 hPa SW 7.4 km/h 7.4 km/h 53 % 0.0 mm
19:08 28.0 °C 17.5 °C 1011.7 hPa WSW 9.5 km/h 9.5 km/h 53 % 0.0 mm
19:13 27.8 °C 17.7 °C 1011.7 hPa SW 3.7 km/h 4.2 km/h 54 % 0.0 mm
19:18 27.7 °C 17.6 °C 1011.7 hPa West 5.6 km/h 5.6 km/h 54 % 0.0 mm
19:23 27.6 °C 17.4 °C 1011.7 hPa SSW 7.4 km/h 7.4 km/h 54 % 0.0 mm
19:28 27.5 °C 17.7 °C 1011.7 hPa West 9.3 km/h 9.3 km/h 55 % 0.0 mm
19:33 27.4 °C 17.6 °C 1011.7 hPa SSW 3.7 km/h   55 % 0.0 mm
19:38 27.4 °C 17.6 °C 1011.7 hPa WSW 6.9 km/h 6.9 km/h 55 % 0.0 mm
19:43 27.3 °C 17.4 °C 1011.7 hPa SW 3.7 km/h   55 % 0.0 mm
19:48 27.3 °C 17.4 °C 1011.7 hPa SW 7.4 km/h 7.4 km/h 55 % 0.0 mm
19:53 27.3 °C 17.4 °C 1011.7 hPa SW 3.7 km/h   55 % 0.0 mm
19:58 27.3 °C 17.8 °C 1011.7 hPa SW 3.9 km/h 3.9 km/h 56 % 0.0 mm
20:03 27.3 °C 17.8 °C 1011.7 hPa WSW 3.7 km/h 3.7 km/h 56 % 0.0 mm
20:08 27.3 °C 17.8 °C 1011.7 hPa SW 3.9 km/h 3.9 km/h 56 % 0.0 mm
20:13 27.2 °C 17.7 °C 1011.7 hPa SW 3.7 km/h 3.7 km/h 56 % 0.0 mm
20:18 27.1 °C 17.6 °C 1011.7 hPa WSW 5.6 km/h 5.6 km/h 56 % 0.0 mm
20:23 27.0 °C 17.8 °C 1011.7 hPa SW 3.7 km/h 3.7 km/h 57 % 0.0 mm
20:33 26.9 °C 18.2 °C 1011.7 hPa West 3.7 km/h   59 % 0.0 mm
20:38 26.8 °C 18.1 °C 1011.7 hPa SW 3.7 km/h 3.7 km/h 59 % 0.0 mm
20:43 26.7 °C 18.0 °C 1011.7 hPa SW 3.7 km/h 3.7 km/h 59 % 0.0 mm
20:48 26.7 °C 18.0 °C 1011.7 hPa SW 3.7 km/h 3.7 km/h 59 % 0.0 mm
20:53 26.6 °C 17.9 °C 1011.7 hPa Calm     59 % 0.0 mm
20:58 26.6 °C 18.2 °C 1011.7 hPa West 1.9 km/h 1.9 km/h 60 % 0.0 mm
21:03 26.6 °C 18.2 °C 1011.7 hPa NNE 3.7 km/h 3.7 km/h 60 % 0.0 mm
21:08 26.5 °C 18.1 °C 1011.7 hPa NNE 1.9 km/h   60 % 0.0 mm
21:13 26.5 °C 18.1 °C 1010.7 hPa NNW 3.7 km/h 3.7 km/h 60 % 0.0 mm
21:18 26.5 °C 18.1 °C 1010.7 hPa WNW 1.9 km/h 1.9 km/h 60 % 0.0 mm
21:23 26.5 °C 18.4 °C 1010.7 hPa North 1.9 km/h   61 % 0.0 mm
21:28 26.5 °C 18.1 °C 1011.7 hPa West 1.9 km/h   60 % 0.0 mm
21:33 26.4 °C 18.0 °C 1011.7 hPa SW 3.7 km/h 3.7 km/h 60 % 0.0 mm
21:38 26.4 °C 18.3 °C 1011.7 hPa SW 1.9 km/h 1.9 km/h 61 % 0.0 mm
21:43 26.3 °C 18.2 °C 1011.7 hPa Calm     61 % 0.0 mm
21:48 26.3 °C 18.2 °C 1011.7 hPa SW 1.9 km/h   61 % 0.0 mm
21:53 26.2 °C 18.1 °C 1011.7 hPa SW 3.7 km/h 3.7 km/h 61 % 0.0 mm
21:58 26.1 °C 18.0 °C 1011.7 hPa SW 1.9 km/h 1.9 km/h 61 % 0.0 mm
22:03 26.1 °C 18.2 °C 1011.7 hPa Calm     62 % 0.0 mm
22:08 26.1 °C 18.2 °C 1011.7 hPa Calm     62 % 0.0 mm
22:13 26.1 °C 18.2 °C 1011.7 hPa Calm     62 % 0.0 mm
22:18 26.1 °C 18.2 °C 1011.7 hPa NE 3.7 km/h 3.7 km/h 62 % 0.0 mm
22:23 26.1 °C 18.2 °C 1011.7 hPa Calm     62 % 0.0 mm
22:28 26.2 °C 18.3 °C 1010.7 hPa Calm     62 % 0.0 mm
22:33 26.2 °C 18.3 °C 1010.7 hPa East 1.9 km/h   62 % 0.0 mm
22:38 26.3 °C 18.4 °C 1010.7 hPa ENE 1.9 km/h   62 % 0.0 mm
22:43 26.1 °C 18.2 °C 1011.7 hPa SW 3.7 km/h 3.7 km/h 62 % 0.0 mm
22:48 25.9 °C 18.1 °C 1011.7 hPa SW 3.9 km/h 3.9 km/h 62 % 0.0 mm
22:53 25.8 °C 18.2 °C 1011.7 hPa SW 1.9 km/h 1.9 km/h 63 % 0.0 mm
22:58 25.8 °C 18.2 °C 1010.7 hPa SW 1.9 km/h 1.9 km/h 63 % 0.0 mm
23:03 25.8 °C 18.2 °C 1010.7 hPa SW 3.7 km/h 3.7 km/h 63 % 0.0 mm
23:08 25.8 °C 18.2 °C 1010.7 hPa SW 3.7 km/h 3.7 km/h 63 % 0.0 mm
23:13 25.8 °C 18.2 °C 1011.7 hPa SW 3.7 km/h 3.7 km/h 63 % 0.0 mm
23:18 25.7 °C 18.4 °C 1011.7 hPa SW 3.7 km/h 3.7 km/h 64 % 0.0 mm
23:23 25.6 °C 18.3 °C 1011.7 hPa WSW 3.7 km/h 3.7 km/h 64 % 0.0 mm
23:28 25.6 °C 18.3 °C 1011.7 hPa WSW 3.9 km/h 3.9 km/h 64 % 0.0 mm
23:33 25.6 °C 18.3 °C 1011.7 hPa WSW 2.6 km/h 2.6 km/h 64 % 0.0 mm
23:38 25.6 °C 18.3 °C 1011.7 hPa WSW 3.7 km/h 3.7 km/h 64 % 0.0 mm
23:43 25.6 °C 18.3 °C 1011.7 hPa SW 3.7 km/h 3.7 km/h 64 % 0.0 mm
23:45 23.1 °C 18.6 °C 1011.7 hPa SW 3.2 km/h 4.8 km/h 76 % 0.0 mm
23:48 25.5 °C 18.2 °C 1011.7 hPa SW 4.7 km/h 4.7 km/h 64 % 0.0 mm
23:53 25.4 °C 18.1 °C 1011.7 hPa WSW 5.6 km/h 5.6 km/h 64 % 0.0 mm
23:55 23.2 °C 18.7 °C 1011.7 hPa WSW 3.2 km/h 6.4 km/h 76 % 0.0 mm
23:58 25.5 °C 18.2 °C 1012.8 hPa SW 3.7 km/h 3.7 km/h 64 % 0.0 mm
Meteo Sesrovires
Elogis d' Weather Underground - 3.5 mb

Guio original per  Jim McMurry - jmcmurry@mwt.net Adaptat per a la plantilla per  Wim van der Kuil - Leuven-Template.eu

Trobareu la nostra informacio del temps tambe a:

Weather Underground

AWEKAS